createdAt,value
2017-02-27T00:00:24.992Z,21.3
2017-02-27T00:06:36.007Z,21.3
2017-02-27T00:12:26.124Z,21.36
2017-02-27T00:18:26.038Z,21.21
2017-02-27T00:24:17.283Z,21.22
2017-02-27T00:31:29.741Z,21.27
2017-02-27T00:37:28.277Z,21.24
2017-02-27T00:43:18.391Z,21.21
2017-02-27T00:49:34.354Z,21.18
2017-02-27T00:55:31.916Z,21.35
2017-02-27T01:00:47.592Z,21.27
2017-02-27T01:06:38.804Z,21.22
2017-02-27T01:11:54.320Z,21.2
2017-02-27T01:17:44.625Z,21.22
2017-02-27T01:23:34.874Z,21.33
2017-02-27T01:29:25.557Z,21.22
2017-02-27T01:41:13.771Z,21.22
2017-02-27T01:53:10.569Z,21.21
2017-02-27T01:59:00.816Z,21.27
2017-02-27T02:04:52.054Z,21.25
2017-02-27T02:10:54.466Z,21.27
2017-02-27T02:16:44.682Z,21.33
2017-02-27T02:22:34.935Z,21.27
2017-02-27T02:28:37.428Z,21.22
2017-02-27T02:33:52.960Z,21.18
2017-02-27T02:39:53.993Z,21.27
2017-02-27T02:45:54.626Z,21.24
2017-02-27T02:51:44.876Z,21.32
2017-02-27T02:57:43.350Z,21.29
2017-02-27T03:02:58.921Z,21.25
2017-02-27T03:08:49.136Z,21.35
2017-02-27T03:14:39.351Z,21.24
2017-02-27T03:19:54.875Z,21.2
2017-02-27T03:25:52.417Z,21.27
2017-02-27T03:31:53.199Z,21.21
2017-02-27T03:37:16.236Z,21.17
2017-02-27T03:43:06.457Z,21.27
2017-02-27T03:48:22.014Z,21.2
2017-02-27T03:54:12.240Z,21.32
2017-02-27T04:00:21.267Z,21.24
2017-02-27T04:05:36.902Z,21.25
2017-02-27T04:11:27.155Z,21.2
2017-02-27T04:17:17.353Z,21.2
2017-02-27T04:22:32.871Z,21.25
2017-02-27T04:27:56.428Z,21.22
2017-02-27T04:33:47.646Z,21.2
2017-02-27T04:39:55.356Z,21.25
2017-02-27T04:45:53.347Z,21.2
2017-02-27T04:51:08.779Z,21.21
2017-02-27T04:56:59.027Z,21.21
2017-02-27T05:02:49.245Z,21.2
2017-02-27T05:08:04.870Z,21.15
2017-02-27T05:14:04.433Z,21.29
2017-02-27T05:20:03.731Z,21.21
2017-02-27T05:25:55.538Z,21.27
2017-02-27T05:31:46.791Z,21.15
2017-02-27T05:37:45.577Z,21.21
2017-02-27T05:43:36.805Z,21.2
2017-02-27T05:49:27.026Z,21.18
2017-02-27T05:54:42.550Z,21.22
2017-02-27T06:00:42.744Z,21.32
2017-02-27T06:05:58.307Z,21.22
2017-02-27T06:11:56.451Z,21.32
2017-02-27T06:17:11.895Z,21.18
2017-02-27T06:22:27.619Z,21.22
2017-02-27T06:28:18.878Z,21.18
2017-02-27T06:34:28.486Z,21.22
2017-02-27T06:39:44.232Z,21.15
2017-02-27T06:45:34.493Z,21.22
2017-02-27T06:50:49.794Z,21.2
2017-02-27T06:56:05.392Z,21.21
2017-02-27T07:02:12.661Z,21.17
2017-02-27T07:08:02.893Z,21.24
2017-02-27T07:14:03.857Z,21.21
2017-02-27T07:19:19.505Z,21.18
2017-02-27T07:24:34.973Z,21.17
2017-02-27T07:30:48.768Z,21.25
2017-02-27T07:36:46.820Z,21.29
2017-02-27T07:42:02.326Z,21.2
2017-02-27T07:48:01.864Z,21.17
2017-02-27T07:53:52.103Z,21.25
2017-02-27T07:59:53.527Z,21.4
2017-02-27T08:05:52.445Z,21.32
2017-02-27T08:11:18.214Z,20.37
2017-02-27T08:17:17.505Z,21.15
2017-02-27T08:23:17.541Z,21.29
2017-02-27T08:29:07.776Z,21.17
2017-02-27T08:34:23.403Z,21.21
2017-02-27T08:39:38.908Z,21.25
2017-02-27T08:44:54.492Z,21.22
2017-02-27T08:50:10.019Z,21.17
2017-02-27T08:55:25.604Z,21.17
2017-02-27T09:00:41.170Z,21.11
2017-02-27T09:05:56.790Z,21.36
2017-02-27T09:11:12.315Z,21.36
2017-02-27T09:16:27.887Z,21.33
2017-02-27T09:21:43.409Z,21.42
2017-02-27T09:26:59.016Z,21.52
2017-02-27T09:32:58.644Z,21.42
2017-02-27T09:38:48.975Z,21.45
2017-02-27T09:44:59.968Z,21.43
2017-02-27T09:51:26.736Z,21.48
2017-02-27T09:58:38.030Z,21.45
2017-02-27T10:04:56.475Z,21.37
2017-02-27T10:13:35.952Z,21.39
2017-02-27T10:19:48.655Z,21.45
2017-02-27T10:26:30.075Z,21.54
2017-02-27T10:32:41.540Z,21.5
2017-02-27T10:39:25.977Z,21.55
2017-02-27T10:47:13.508Z,21.42
2017-02-27T10:53:22.524Z,21.4
2017-02-27T10:59:25.859Z,21.3
2017-02-27T11:05:26.323Z,21.42
2017-02-27T11:11:36.124Z,21.42
2017-02-27T11:17:36.865Z,21.4
2017-02-27T11:22:52.788Z,21.37
2017-02-27T11:29:28.013Z,21.43
2017-02-27T11:36:12.499Z,21.46
2017-02-27T11:42:35.080Z,21.55
2017-02-27T11:48:53.973Z,21.69
2017-02-27T11:55:29.423Z,21.66
2017-02-27T12:01:19.646Z,21.5
2017-02-27T12:07:20.615Z,21.6
2017-02-27T12:13:21.349Z,21.52
2017-02-27T12:19:40.328Z,21.57
2017-02-27T12:25:31.618Z,21.54
2017-02-27T12:30:47.142Z,21.46
2017-02-27T12:41:43.668Z,21.5
2017-02-27T12:46:59.256Z,21.54
2017-02-27T12:52:14.819Z,21.52
2017-02-27T12:57:30.478Z,21.67
2017-02-27T13:02:46.108Z,21.55
2017-02-27T13:08:01.964Z,21.52
2017-02-27T13:14:04.646Z,21.57
2017-02-27T13:19:54.248Z,21.45
2017-02-27T13:25:43.741Z,21.52
2017-02-27T13:31:33.972Z,21.66
2017-02-27T13:37:34.002Z,21.48
2017-02-27T13:43:24.336Z,21.5
2017-02-27T13:49:35.288Z,21.46
2017-02-27T13:55:52.759Z,21.43
2017-02-27T14:01:02.278Z,21.48
2017-02-27T14:06:18.049Z,21.42
2017-02-27T14:11:37.074Z,21.42
2017-02-27T14:17:37.473Z,21.39
2017-02-27T14:22:55.506Z,21.43
2017-02-27T14:28:12.423Z,21.4
2017-02-27T14:33:29.807Z,21.5
2017-02-27T14:38:46.986Z,21.43
2017-02-27T14:44:02.541Z,21.54
2017-02-27T14:55:37.681Z,21.51
2017-02-27T15:01:27.969Z,21.55
2017-02-27T15:07:01.514Z,21.52
2017-02-27T15:12:51.978Z,21.45
2017-02-27T15:18:09.033Z,21.54
2017-02-27T15:23:37.291Z,21.42
2017-02-27T15:29:28.558Z,21.54
2017-02-27T15:35:18.821Z,21.69
2017-02-27T15:40:34.337Z,21.69
2017-02-27T15:45:50.896Z,21.67
2017-02-27T15:51:51.721Z,21.54
2017-02-27T15:57:41.840Z,21.72
2017-02-27T16:03:06.388Z,21.67
2017-02-27T16:08:57.148Z,21.6
2017-02-27T16:14:58.703Z,21.66
2017-02-27T16:21:01.281Z,21.8
2017-02-27T16:28:19.043Z,21.55
2017-02-27T16:34:09.121Z,21.6
2017-02-27T16:40:04.125Z,21.52
2017-02-27T16:46:16.300Z,21.67
2017-02-27T16:52:07.813Z,21.6
2017-02-27T16:58:10.153Z,21.75
2017-02-27T17:04:01.513Z,21.57
2017-02-27T17:09:53.984Z,21.75
2017-02-27T17:15:54.158Z,21.54
2017-02-27T17:21:43.625Z,21.61
2017-02-27T17:27:00.226Z,21.6
2017-02-27T17:33:27.911Z,21.67
2017-02-27T17:39:47.976Z,21.62
2017-02-27T17:45:49.035Z,21.75
2017-02-27T17:52:07.491Z,21.67
2017-02-27T17:58:35.701Z,21.72
2017-02-27T18:08:45.085Z,21.69
2017-02-27T18:14:46.186Z,21.69
2017-02-27T18:20:01.741Z,21.67
2017-02-27T18:25:52.530Z,21.66
2017-02-27T18:31:55.280Z,21.69
2017-02-27T18:37:20.922Z,21.72
2017-02-27T18:43:21.600Z,21.62
2017-02-27T18:49:23.522Z,21.6
2017-02-27T18:55:17.252Z,21.64
2017-02-27T19:01:10.376Z,21.58
2017-02-27T19:06:28.170Z,21.64
2017-02-27T19:12:18.437Z,21.57
2017-02-27T19:18:12.110Z,21.55
2017-02-27T19:24:04.635Z,21.52
2017-02-27T19:29:54.934Z,21.72
2017-02-27T19:35:44.208Z,21.54
2017-02-27T19:41:00.437Z,21.57
2017-02-27T19:46:52.939Z,21.51
2017-02-27T19:52:08.454Z,21.42
2017-02-27T19:57:24.115Z,21.39
2017-02-27T20:03:15.321Z,21.3
2017-02-27T20:09:05.557Z,21.21
2017-02-27T20:14:21.125Z,21.2
2017-02-27T20:19:36.638Z,21.21
2017-02-27T20:24:53.254Z,21.2
2017-02-27T20:30:08.793Z,21.18
2017-02-27T20:36:00.155Z,21.14
2017-02-27T20:41:15.755Z,21.17
2017-02-27T20:47:06.537Z,21.3
2017-02-27T20:52:22.067Z,21.33
2017-02-27T20:57:37.752Z,21.33
2017-02-27T21:02:53.280Z,21.4
2017-02-27T21:08:53.866Z,21.48
2017-02-27T21:14:49.732Z,21.39
2017-02-27T21:20:40.599Z,21.57
2017-02-27T21:26:31.815Z,21.46
2017-02-27T21:31:47.372Z,21.43
2017-02-27T21:37:02.986Z,21.52
2017-02-27T21:42:53.236Z,21.52
2017-02-27T21:48:08.769Z,21.52
2017-02-27T21:53:24.321Z,21.55
2017-02-27T21:59:14.575Z,21.51
2017-02-27T22:05:10.531Z,21.5
2017-02-27T22:11:01.702Z,21.32
2017-02-27T22:16:17.276Z,21.33
2017-02-27T22:22:19.453Z,21.36
2017-02-27T22:28:19.517Z,21.27
2017-02-27T22:34:12.535Z,21.3
2017-02-27T22:40:02.927Z,21.35
2017-02-27T22:46:02.545Z,21.35
2017-02-27T22:51:18.082Z,21.27
2017-02-27T22:57:09.435Z,21.35
2017-02-27T23:03:08.088Z,21.32
2017-02-27T23:08:23.653Z,21.27
2017-02-27T23:13:39.174Z,21.3
2017-02-27T23:18:57.434Z,21.15
2017-02-27T23:24:47.654Z,21.4
2017-02-27T23:30:38.032Z,21.54
2017-02-27T23:36:31.638Z,21.46
2017-02-27T23:42:23.910Z,21.37
2017-02-27T23:48:14.191Z,21.52
2017-02-27T23:54:04.367Z,21.52
2017-02-27T23:59:19.889Z,21.39
